KSEF

Sebring Regional Airport

Sebring, Florida, USA
METAR KSEF 190835Z AUTO 00000KT 10SM CLR 26/23 A2993 RMK AO2 T02590232
Observed Flight Rules
Sep-19 @ 08:35 UTC (30 minutes ago) Visual Flight Rules
Visibility Clouds
10 miles
  • Clear skies
Temperatures Readings
Current 26°C / 79°F
Dewpoint 23°C / 73°F
Humidity 84%
Altimeter 29.93" Hg
Pressure 1014 hPa
Elevation 19
METAR KSEF 190835Z AUTO 00000KT 10SM CLR 26/23 A2993 RMK AO2 T02590232
Observed Flight Rules
Sep-19 @ 08:35 UTC
(30 minutes ago)
VFR
Clouds
  • Clear skies
Temperature Dewpoint
26°C / 79°F 23°C / 73°F
Humidity Altimeter Pressure
84% 29.93" Hg 1014 hPa